sensor_id;sensor_type;location;lat;lon;timestamp;P1;durP1;ratioP1;P2;durP2;ratioP2
69253;SDS011;56364;41.816;12.448;2023-04-22T00:08:20;10.48;;;3.35;;
69253;SDS011;56364;41.816;12.448;2023-04-22T00:10:46;15.18;;;4.15;;
69253;SDS011;56364;41.816;12.448;2023-04-22T00:13:14;8.88;;;3.55;;
69253;SDS011;56364;41.816;12.448;2023-04-22T00:15:40;10.02;;;3.45;;
69253;SDS011;56364;41.816;12.448;2023-04-22T00:18:06;8.98;;;3.70;;
69253;SDS011;56364;41.816;12.448;2023-04-22T00:23:13;5.22;;;2.65;;
69253;SDS011;56364;41.816;12.448;2023-04-22T00:26:17;5.43;;;2.63;;
69253;SDS011;56364;41.816;12.448;2023-04-22T00:28:44;6.60;;;2.60;;
69253;SDS011;56364;41.816;12.448;2023-04-22T00:31:10;7.88;;;2.88;;
69253;SDS011;56364;41.816;12.448;2023-04-22T00:33:36;7.32;;;3.00;;
69253;SDS011;56364;41.816;12.448;2023-04-22T00:38:29;6.13;;;2.78;;
69253;SDS011;56364;41.816;12.448;2023-04-22T00:40:58;7.93;;;2.40;;
69253;SDS011;56364;41.816;12.448;2023-04-22T00:43:24;9.88;;;2.88;;
69253;SDS011;56364;41.816;12.448;2023-04-22T00:45:50;8.32;;;2.72;;
69253;SDS011;56364;41.816;12.448;2023-04-22T00:48:19;6.78;;;2.53;;
69253;SDS011;56364;41.816;12.448;2023-04-22T00:50:45;9.52;;;3.00;;
69253;SDS011;56364;41.816;12.448;2023-04-22T00:53:13;7.28;;;3.10;;
69253;SDS011;56364;41.816;12.448;2023-04-22T00:55:39;7.63;;;2.70;;
69253;SDS011;56364;41.816;12.448;2023-04-22T00:58:05;6.50;;;2.72;;
69253;SDS011;56364;41.816;12.448;2023-04-22T01:00:34;5.05;;;1.98;;
69253;SDS011;56364;41.816;12.448;2023-04-22T01:03:20;5.57;;;2.80;;
69253;SDS011;56364;41.816;12.448;2023-04-22T01:05:51;6.72;;;2.30;;
69253;SDS011;56364;41.816;12.448;2023-04-22T01:08:17;7.32;;;2.60;;
69253;SDS011;56364;41.816;12.448;2023-04-22T01:10:48;5.05;;;1.90;;
69253;SDS011;56364;41.816;12.448;2023-04-22T01:13:14;6.13;;;2.33;;
69253;SDS011;56364;41.816;12.448;2023-04-22T01:15:57;4.15;;;2.00;;
69253;SDS011;56364;41.816;12.448;2023-04-22T01:21:02;6.05;;;2.88;;
69253;SDS011;56364;41.816;12.448;2023-04-22T01:26:25;4.55;;;1.98;;
69253;SDS011;56364;41.816;12.448;2023-04-22T01:29:00;8.60;;;2.33;;
69253;SDS011;56364;41.816;12.448;2023-04-22T01:33:58;6.20;;;1.80;;
69253;SDS011;56364;41.816;12.448;2023-04-22T01:36:24;6.05;;;1.92;;
69253;SDS011;56364;41.816;12.448;2023-04-22T01:38:50;5.45;;;2.08;;
69253;SDS011;56364;41.816;12.448;2023-04-22T01:46:28;6.63;;;2.30;;
69253;SDS011;56364;41.816;12.448;2023-04-22T01:48:54;5.38;;;2.17;;
69253;SDS011;56364;41.816;12.448;2023-04-22T01:51:21;7.25;;;2.35;;
69253;SDS011;56364;41.816;12.448;2023-04-22T01:53:53;5.57;;;2.22;;
69253;SDS011;56364;41.816;12.448;2023-04-22T01:56:21;6.30;;;2.42;;
69253;SDS011;56364;41.816;12.448;2023-04-22T01:58:48;4.25;;;2.30;;
69253;SDS011;56364;41.816;12.448;2023-04-22T02:01:15;5.43;;;2.05;;
69253;SDS011;56364;41.816;12.448;2023-04-22T02:03:57;4.00;;;1.98;;
69253;SDS011;56364;41.816;12.448;2023-04-22T02:06:44;6.65;;;2.60;;
69253;SDS011;56364;41.816;12.448;2023-04-22T02:09:10;3.35;;;2.03;;
69253;SDS011;56364;41.816;12.448;2023-04-22T02:11:36;7.45;;;2.25;;
69253;SDS011;56364;41.816;12.448;2023-04-22T02:16:28;7.43;;;2.53;;
69253;SDS011;56364;41.816;12.448;2023-04-22T02:18:54;5.85;;;2.33;;
69253;SDS011;56364;41.816;12.448;2023-04-22T02:21:36;5.10;;;2.35;;
69253;SDS011;56364;41.816;12.448;2023-04-22T02:24:08;7.57;;;2.20;;
69253;SDS011;56364;41.816;12.448;2023-04-22T02:26:39;4.60;;;2.20;;
69253;SDS011;56364;41.816;12.448;2023-04-22T02:29:09;5.05;;;2.53;;
69253;SDS011;56364;41.816;12.448;2023-04-22T02:31:35;4.95;;;2.10;;
69253;SDS011;56364;41.816;12.448;2023-04-22T02:34:01;3.70;;;2.08;;
69253;SDS011;56364;41.816;12.448;2023-04-22T02:36:27;6.28;;;2.20;;
69253;SDS011;56364;41.816;12.448;2023-04-22T02:38:53;6.30;;;2.28;;
69253;SDS011;56364;41.816;12.448;2023-04-22T02:43:57;7.30;;;2.33;;
69253;SDS011;56364;41.816;12.448;2023-04-22T03:28:12;5.38;;;1.95;;
69253;SDS011;56364;41.816;12.448;2023-04-22T03:30:48;5.32;;;1.80;;
69253;SDS011;56364;41.816;12.448;2023-04-22T03:33:14;5.65;;;2.03;;
69253;SDS011;56364;41.816;12.448;2023-04-22T03:35:46;5.00;;;2.05;;
69253;SDS011;56364;41.816;12.448;2023-04-22T03:38:14;7.43;;;2.60;;
69253;SDS011;56364;41.816;12.448;2023-04-22T03:40:41;6.70;;;2.00;;
69253;SDS011;56364;41.816;12.448;2023-04-22T03:43:07;4.15;;;2.08;;
69253;SDS011;56364;41.816;12.448;2023-04-22T03:45:33;4.88;;;1.73;;
69253;SDS011;56364;41.816;12.448;2023-04-22T03:47:59;6.28;;;2.33;;
69253;SDS011;56364;41.816;12.448;2023-04-22T03:50:25;4.70;;;1.80;;
69253;SDS011;56364;41.816;12.448;2023-04-22T03:52:51;6.65;;;2.40;;
69253;SDS011;56364;41.816;12.448;2023-04-22T03:55:17;3.50;;;2.03;;
69253;SDS011;56364;41.816;12.448;2023-04-22T03:57:43;4.63;;;2.03;;
69253;SDS011;56364;41.816;12.448;2023-04-22T04:26:25;3.35;;;1.95;;
69253;SDS011;56364;41.816;12.448;2023-04-22T04:28:51;5.32;;;2.22;;
69253;SDS011;56364;41.816;12.448;2023-04-22T04:31:18;7.15;;;2.25;;
69253;SDS011;56364;41.816;12.448;2023-04-22T04:33:44;5.30;;;2.50;;
69253;SDS011;56364;41.816;12.448;2023-04-22T04:36:11;5.13;;;2.20;;
69253;SDS011;56364;41.816;12.448;2023-04-22T04:38:47;5.80;;;2.40;;
69253;SDS011;56364;41.816;12.448;2023-04-22T04:46:37;4.80;;;1.90;;
69253;SDS011;56364;41.816;12.448;2023-04-22T04:51:29;9.85;;;2.75;;
69253;SDS011;56364;41.816;12.448;2023-04-22T04:53:58;5.55;;;2.25;;
69253;SDS011;56364;41.816;12.448;2023-04-22T04:56:25;7.25;;;2.88;;
69253;SDS011;56364;41.816;12.448;2023-04-22T05:14:25;10.20;;;3.47;;
69253;SDS011;56364;41.816;12.448;2023-04-22T05:16:54;6.93;;;3.15;;
69253;SDS011;56364;41.816;12.448;2023-04-22T05:19:22;9.75;;;2.92;;
69253;SDS011;56364;41.816;12.448;2023-04-22T05:21:48;5.60;;;2.80;;
69253;SDS011;56364;41.816;12.448;2023-04-22T05:24:18;6.57;;;3.13;;
69253;SDS011;56364;41.816;12.448;2023-04-22T05:26:44;8.27;;;3.47;;
69253;SDS011;56364;41.816;12.448;2023-04-22T05:29:10;8.18;;;3.20;;
69253;SDS011;56364;41.816;12.448;2023-04-22T05:31:45;5.95;;;2.65;;
69253;SDS011;56364;41.816;12.448;2023-04-22T05:34:12;6.22;;;2.60;;
69253;SDS011;56364;41.816;12.448;2023-04-22T05:36:38;5.88;;;2.53;;
69253;SDS011;56364;41.816;12.448;2023-04-22T05:39:05;6.75;;;2.35;;
69253;SDS011;56364;41.816;12.448;2023-04-22T05:41:31;5.38;;;2.63;;
69253;SDS011;56364;41.816;12.448;2023-04-22T05:46:31;7.07;;;2.67;;
69253;SDS011;56364;41.816;12.448;2023-04-22T05:48:57;4.45;;;2.63;;
69253;SDS011;56364;41.816;12.448;2023-04-22T06:02:40;7.03;;;2.50;;
69253;SDS011;56364;41.816;12.448;2023-04-22T06:21:25;7.05;;;2.38;;
69253;SDS011;56364;41.816;12.448;2023-04-22T06:24:01;5.13;;;2.33;;
69253;SDS011;56364;41.816;12.448;2023-04-22T06:26:31;4.65;;;2.08;;
69253;SDS011;56364;41.816;12.448;2023-04-22T07:07:56;7.18;;;1.80;;
69253;SDS011;56364;41.816;12.448;2023-04-22T07:10:23;5.40;;;2.05;;
69253;SDS011;56364;41.816;12.448;2023-04-22T07:12:49;7.13;;;2.40;;
69253;SDS011;56364;41.816;12.448;2023-04-22T07:36:15;4.43;;;2.00;;
69253;SDS011;56364;41.816;12.448;2023-04-22T07:39:12;5.35;;;1.73;;
69253;SDS011;56364;41.816;12.448;2023-04-22T07:41:41;3.53;;;2.13;;
69253;SDS011;56364;41.816;12.448;2023-04-22T07:44:07;3.63;;;1.83;;
69253;SDS011;56364;41.816;12.448;2023-04-22T07:46:35;5.97;;;2.25;;
69253;SDS011;56364;41.816;12.448;2023-04-22T08:33:40;5.28;;;2.58;;
69253;SDS011;56364;41.816;12.448;2023-04-22T08:36:07;6.30;;;2.30;;
69253;SDS011;56364;41.816;12.448;2023-04-22T08:38:38;7.70;;;2.17;;
69253;SDS011;56364;41.816;12.448;2023-04-22T08:41:04;5.53;;;2.35;;
69253;SDS011;56364;41.816;12.448;2023-04-22T08:43:31;3.67;;;2.13;;
69253;SDS011;56364;41.816;12.448;2023-04-22T08:45:58;4.90;;;2.42;;
69253;SDS011;56364;41.816;12.448;2023-04-22T08:48:33;4.95;;;2.30;;
69253;SDS011;56364;41.816;12.448;2023-04-22T08:53:50;22.63;;;3.67;;
69253;SDS011;56364;41.816;12.448;2023-04-22T08:56:18;8.10;;;2.20;;
69253;SDS011;56364;41.816;12.448;2023-04-22T09:04:00;4.95;;;1.88;;
69253;SDS011;56364;41.816;12.448;2023-04-22T09:33:03;2.33;;;1.35;;
69253;SDS011;56364;41.816;12.448;2023-04-22T09:38:06;3.55;;;1.55;;
69253;SDS011;56364;41.816;12.448;2023-04-22T09:53:28;3.22;;;1.83;;
69253;SDS011;56364;41.816;12.448;2023-04-22T09:55:55;4.05;;;1.85;;
69253;SDS011;56364;41.816;12.448;2023-04-22T10:00:52;6.22;;;1.38;;
69253;SDS011;56364;41.816;12.448;2023-04-22T10:03:19;6.45;;;2.05;;
69253;SDS011;56364;41.816;12.448;2023-04-22T10:05:46;7.03;;;1.50;;
69253;SDS011;56364;41.816;12.448;2023-04-22T10:08:13;4.25;;;1.65;;
69253;SDS011;56364;41.816;12.448;2023-04-22T10:13:23;5.03;;;1.42;;
69253;SDS011;56364;41.816;12.448;2023-04-22T10:15:55;3.50;;;1.73;;
69253;SDS011;56364;41.816;12.448;2023-04-22T10:18:23;2.72;;;1.05;;
69253;SDS011;56364;41.816;12.448;2023-04-22T10:20:53;4.75;;;1.55;;
69253;SDS011;56364;41.816;12.448;2023-04-22T10:23:21;2.78;;;1.40;;
69253;SDS011;56364;41.816;12.448;2023-04-22T10:25:54;4.43;;;1.33;;
69253;SDS011;56364;41.816;12.448;2023-04-22T10:28:27;5.13;;;1.98;;
69253;SDS011;56364;41.816;12.448;2023-04-22T10:38:39;3.80;;;1.95;;
69253;SDS011;56364;41.816;12.448;2023-04-22T10:41:17;3.15;;;1.60;;
69253;SDS011;56364;41.816;12.448;2023-04-22T10:44:04;3.45;;;1.50;;
69253;SDS011;56364;41.816;12.448;2023-04-22T10:51:55;7.20;;;1.92;;
69253;SDS011;56364;41.816;12.448;2023-04-22T10:57:09;3.17;;;1.50;;
69253;SDS011;56364;41.816;12.448;2023-04-22T10:59:45;3.63;;;1.73;;
69253;SDS011;56364;41.816;12.448;2023-04-22T11:02:13;7.63;;;2.03;;
69253;SDS011;56364;41.816;12.448;2023-04-22T11:04:39;3.08;;;1.52;;
69253;SDS011;56364;41.816;12.448;2023-04-22T11:17:17;3.75;;;1.42;;
69253;SDS011;56364;41.816;12.448;2023-04-22T11:19:45;5.78;;;1.50;;
69253;SDS011;56364;41.816;12.448;2023-04-22T11:22:22;3.95;;;2.00;;
69253;SDS011;56364;41.816;12.448;2023-04-22T11:25:09;3.60;;;1.75;;
69253;SDS011;56364;41.816;12.448;2023-04-22T11:30:19;6.53;;;2.53;;
69253;SDS011;56364;41.816;12.448;2023-04-22T11:33:07;4.25;;;2.45;;
69253;SDS011;56364;41.816;12.448;2023-04-22T11:35:33;4.13;;;2.38;;
69253;SDS011;56364;41.816;12.448;2023-04-22T11:38:05;5.45;;;2.60;;
69253;SDS011;56364;41.816;12.448;2023-04-22T11:40:42;10.02;;;3.22;;
69253;SDS011;56364;41.816;12.448;2023-04-22T11:43:12;6.30;;;2.70;;
69253;SDS011;56364;41.816;12.448;2023-04-22T11:53:59;6.03;;;2.65;;
69253;SDS011;56364;41.816;12.448;2023-04-22T12:04:20;5.93;;;2.38;;
69253;SDS011;56364;41.816;12.448;2023-04-22T12:06:46;4.57;;;1.92;;
69253;SDS011;56364;41.816;12.448;2023-04-22T12:24:52;3.95;;;2.00;;
69253;SDS011;56364;41.816;12.448;2023-04-22T14:16:53;2.70;;;1.58;;
69253;SDS011;56364;41.816;12.448;2023-04-22T14:19:23;3.33;;;1.63;;
69253;SDS011;56364;41.816;12.448;2023-04-22T14:22:03;3.70;;;1.63;;
69253;SDS011;56364;41.816;12.448;2023-04-22T14:27:27;2.22;;;1.00;;
69253;SDS011;56364;41.816;12.448;2023-04-22T14:30:02;2.70;;;1.52;;
69253;SDS011;56364;41.816;12.448;2023-04-22T14:32:44;2.50;;;1.38;;
69253;SDS011;56364;41.816;12.448;2023-04-22T15:01:07;2.60;;;1.48;;
69253;SDS011;56364;41.816;12.448;2023-04-22T15:03:38;1.73;;;1.33;;
69253;SDS011;56364;41.816;12.448;2023-04-22T15:06:04;2.22;;;1.25;;
69253;SDS011;56364;41.816;12.448;2023-04-22T15:14:21;4.32;;;2.05;;
69253;SDS011;56364;41.816;12.448;2023-04-22T15:16:47;2.22;;;1.30;;
69253;SDS011;56364;41.816;12.448;2023-04-22T15:19:13;2.67;;;1.38;;
69253;SDS011;56364;41.816;12.448;2023-04-22T15:21:39;3.72;;;1.42;;
69253;SDS011;56364;41.816;12.448;2023-04-22T15:24:05;5.38;;;1.33;;
69253;SDS011;56364;41.816;12.448;2023-04-22T15:26:31;1.70;;;0.90;;
69253;SDS011;56364;41.816;12.448;2023-04-22T15:28:58;3.22;;;1.52;;
69253;SDS011;56364;41.816;12.448;2023-04-22T15:36:29;2.35;;;1.27;;
69253;SDS011;56364;41.816;12.448;2023-04-22T15:38:58;2.80;;;1.35;;
69253;SDS011;56364;41.816;12.448;2023-04-22T15:41:25;1.95;;;1.13;;
69253;SDS011;56364;41.816;12.448;2023-04-22T15:43:51;2.13;;;1.23;;
69253;SDS011;56364;41.816;12.448;2023-04-22T15:46:18;1.63;;;1.20;;
69253;SDS011;56364;41.816;12.448;2023-04-22T15:48:44;2.63;;;1.48;;
69253;SDS011;56364;41.816;12.448;2023-04-22T15:53:47;2.35;;;1.08;;
69253;SDS011;56364;41.816;12.448;2023-04-22T15:56:16;2.35;;;1.23;;
69253;SDS011;56364;41.816;12.448;2023-04-22T15:58:42;3.78;;;1.50;;
69253;SDS011;56364;41.816;12.448;2023-04-22T16:01:20;3.60;;;1.17;;
69253;SDS011;56364;41.816;12.448;2023-04-22T17:55:26;4.55;;;1.98;;
69253;SDS011;56364;41.816;12.448;2023-04-22T17:57:54;3.67;;;1.52;;
69253;SDS011;56364;41.816;12.448;2023-04-22T18:00:20;3.45;;;1.40;;
69253;SDS011;56364;41.816;12.448;2023-04-22T18:02:46;3.25;;;1.48;;
69253;SDS011;56364;41.816;12.448;2023-04-22T18:07:51;6.65;;;1.73;;
69253;SDS011;56364;41.816;12.448;2023-04-22T18:10:27;3.20;;;1.60;;
69253;SDS011;56364;41.816;12.448;2023-04-22T18:12:53;3.75;;;1.58;;
69253;SDS011;56364;41.816;12.448;2023-04-22T18:15:19;3.38;;;1.50;;
69253;SDS011;56364;41.816;12.448;2023-04-22T18:17:47;4.80;;;1.48;;
69253;SDS011;56364;41.816;12.448;2023-04-22T18:20:13;4.18;;;1.95;;
69253;SDS011;56364;41.816;12.448;2023-04-22T18:22:41;4.85;;;1.50;;
69253;SDS011;56364;41.816;12.448;2023-04-22T18:25:07;3.83;;;1.70;;
69253;SDS011;56364;41.816;12.448;2023-04-22T18:29:59;3.35;;;1.60;;
69253;SDS011;56364;41.816;12.448;2023-04-22T18:32:25;9.27;;;1.63;;
69253;SDS011;56364;41.816;12.448;2023-04-22T18:34:51;4.20;;;1.77;;
69253;SDS011;56364;41.816;12.448;2023-04-22T18:37:17;5.88;;;1.70;;
69253;SDS011;56364;41.816;12.448;2023-04-22T18:39:44;9.45;;;1.90;;
69253;SDS011;56364;41.816;12.448;2023-04-22T18:42:10;4.80;;;1.77;;
69253;SDS011;56364;41.816;12.448;2023-04-22T18:44:36;4.20;;;1.98;;
69253;SDS011;56364;41.816;12.448;2023-04-22T18:47:02;4.50;;;1.85;;
69253;SDS011;56364;41.816;12.448;2023-04-22T18:49:29;4.25;;;1.92;;
69253;SDS011;56364;41.816;12.448;2023-04-22T18:51:58;6.38;;;2.13;;
69253;SDS011;56364;41.816;12.448;2023-04-22T18:54:31;4.80;;;2.08;;
69253;SDS011;56364;41.816;12.448;2023-04-22T18:56:57;4.70;;;2.28;;
69253;SDS011;56364;41.816;12.448;2023-04-22T18:59:23;5.38;;;2.10;;
69253;SDS011;56364;41.816;12.448;2023-04-22T19:01:49;8.02;;;2.25;;
69253;SDS011;56364;41.816;12.448;2023-04-22T19:04:15;5.15;;;2.38;;
69253;SDS011;56364;41.816;12.448;2023-04-22T19:06:41;4.10;;;1.92;;
69253;SDS011;56364;41.816;12.448;2023-04-22T19:11:36;4.57;;;2.13;;
69253;SDS011;56364;41.816;12.448;2023-04-22T19:21:50;5.93;;;2.33;;
69253;SDS011;56364;41.816;12.448;2023-04-22T19:26:42;5.25;;;2.25;;
69253;SDS011;56364;41.816;12.448;2023-04-22T19:44:35;6.15;;;2.13;;
69253;SDS011;56364;41.816;12.448;2023-04-22T19:47:01;9.68;;;2.30;;
69253;SDS011;56364;41.816;12.448;2023-04-22T19:54:39;8.48;;;2.20;;
69253;SDS011;56364;41.816;12.448;2023-04-22T19:57:06;5.25;;;2.10;;
69253;SDS011;56364;41.816;12.448;2023-04-22T19:59:32;4.85;;;2.22;;
69253;SDS011;56364;41.816;12.448;2023-04-22T20:01:59;5.25;;;2.22;;
69253;SDS011;56364;41.816;12.448;2023-04-22T20:06:57;4.88;;;1.90;;
69253;SDS011;56364;41.816;12.448;2023-04-22T20:15:09;7.20;;;2.15;;
69253;SDS011;56364;41.816;12.448;2023-04-22T20:17:37;4.65;;;2.70;;
69253;SDS011;56364;41.816;12.448;2023-04-22T20:20:23;10.45;;;2.78;;
69253;SDS011;56364;41.816;12.448;2023-04-22T20:22:50;6.95;;;2.92;;
69253;SDS011;56364;41.816;12.448;2023-04-22T20:25:17;7.03;;;2.78;;
69253;SDS011;56364;41.816;12.448;2023-04-22T20:27:43;10.15;;;2.90;;
69253;SDS011;56364;41.816;12.448;2023-04-22T22:16:54;9.23;;;4.30;;
69253;SDS011;56364;41.816;12.448;2023-04-22T22:19:28;9.82;;;4.40;;
69253;SDS011;56364;41.816;12.448;2023-04-22T22:21:57;11.07;;;4.30;;
69253;SDS011;56364;41.816;12.448;2023-04-22T22:24:26;13.68;;;4.93;;
69253;SDS011;56364;41.816;12.448;2023-04-22T22:26:52;13.70;;;5.38;;
69253;SDS011;56364;41.816;12.448;2023-04-22T22:29:28;12.60;;;5.38;;
69253;SDS011;56364;41.816;12.448;2023-04-22T22:32:12;11.70;;;5.03;;
69253;SDS011;56364;41.816;12.448;2023-04-22T22:34:40;10.88;;;4.50;;
69253;SDS011;56364;41.816;12.448;2023-04-22T22:37:07;13.68;;;5.47;;
69253;SDS011;56364;41.816;12.448;2023-04-22T22:39:38;15.32;;;5.43;;
69253;SDS011;56364;41.816;12.448;2023-04-22T22:42:20;12.63;;;4.65;;
69253;SDS011;56364;41.816;12.448;2023-04-22T22:47:43;13.25;;;4.95;;
69253;SDS011;56364;41.816;12.448;2023-04-22T22:50:10;12.75;;;4.35;;
69253;SDS011;56364;41.816;12.448;2023-04-22T22:55:18;12.88;;;4.70;;
69253;SDS011;56364;41.816;12.448;2023-04-22T22:57:50;15.60;;;4.80;;
69253;SDS011;56364;41.816;12.448;2023-04-22T23:00:16;8.90;;;4.35;;
69253;SDS011;56364;41.816;12.448;2023-04-22T23:02:42;14.10;;;4.65;;
69253;SDS011;56364;41.816;12.448;2023-04-22T23:05:11;9.90;;;4.10;;
69253;SDS011;56364;41.816;12.448;2023-04-22T23:07:55;9.82;;;3.97;;
69253;SDS011;56364;41.816;12.448;2023-04-22T23:10:42;11.73;;;4.47;;
69253;SDS011;56364;41.816;12.448;2023-04-22T23:52:05;12.93;;;5.45;;
69253;SDS011;56364;41.816;12.448;2023-04-22T23:54:32;9.10;;;4.45;;
69253;SDS011;56364;41.816;12.448;2023-04-22T23:56:58;11.20;;;4.55;;
69253;SDS011;56364;41.816;12.448;2023-04-22T23:59:25;10.95;;;4.28;;
